Aviation Digital Data Service (ADDS)

Output produced by METARs form (0531 UTC 19 February 2019)
found at http://www.aviationweather.gov/metar/data/
 
Forecast for: KUNV (STATE COLLEGE , PA, US)
Text: KUNV 190439Z 1905/1924 30008G16KT P6SM BKN025
Forecast period: 0500 UTC 19 February 2019 to 0000 UTC 20 February 2019
Forecast type: FROM: standard forecast or significant change
Winds: from the WNW (300 degrees) at 9 MPH (8 knots; 4.1 m/s)
gusting to 18 MPH (16 knots; 8.2 m/s)
Visibility: 6 or more miles 10+ km)
Ceiling: 2500 feet AGL
Clouds: broken clouds at 2500 feet AGL
Weather: no significant weather forecast for this period
Text: FM190500 30007KT P6SM SCT035
Forecast period: 0500 UTC 19 February 2019 to 0000 UTC 20 February 2019
Forecast type: FROM: standard forecast or significant change
Winds: from the WNW (300 degrees) at 8 MPH (7 knots; 3.6 m/s)
Visibility: 6 or more miles 10+ km)
Ceiling: at least 12,000 feet AGL
Clouds: scattered clouds at 3500 feet AGL
Weather: no significant weather forecast for this period